Time;durP1;ratioP1;P1;durP2;ratioP2;P2;SDS_P1;SDS_P2;PMS_P1;PMS_P2;Temp;Humidity;BMP_temperature;BMP_pressure;BME280_temperature;BME280_humidity;BME280_pressure;Samples;Min_cycle;Max_cycle;Signal;HPM_P1;HPM_P2
2022/11/07 00:02:49;;;;;;;18.80;7.60;;;;;;;4.76;88.04;99753.46;105914;1291;69999;-78
2022/11/07 00:05:40;;;;;;;19.10;7.90;;;;;;;4.74;88.19;99751.45;105940;1291;73735;-78
2022/11/07 00:08:33;;;;;;;15.60;7.70;;;;;;;4.72;88.34;99751.20;105929;1292;57994;-79
2022/11/07 00:11:21;;;;;;;16.70;7.50;;;;;;;4.73;88.28;99746.79;105913;1285;61403;-80
2022/11/07 00:14:12;;;;;;;13.90;5.90;;;;;;;4.72;88.09;99738.79;105937;1291;72430;-80
2022/11/07 00:17:00;;;;;;;17.50;6.50;;;;;;;4.71;88.39;99736.85;105946;1291;67943;-80
2022/11/07 00:19:48;;;;;;;17.50;6.60;;;;;;;4.70;88.53;99732.52;105923;1291;72630;-80
2022/11/07 00:22:35;;;;;;;16.20;6.70;;;;;;;4.71;87.81;99724.06;105919;1291;58333;-81
2022/11/07 00:25:23;;;;;;;15.10;6.10;;;;;;;4.73;87.96;99727.80;105939;1291;58955;-78
2022/11/07 00:28:11;;;;;;;13.90;6.30;;;;;;;4.74;87.92;99728.45;105928;1298;72483;-79
2022/11/07 00:30:59;;;;;;;14.90;5.80;;;;;;;4.74;87.97;99725.27;105922;1291;66930;-79
2022/11/07 00:33:47;;;;;;;14.80;6.30;;;;;;;4.74;87.80;99718.43;105913;1291;72700;-77
2022/11/07 00:36:35;;;;;;;12.70;5.70;;;;;;;4.74;88.06;99714.20;105942;1291;57926;-78
2022/11/07 00:39:23;;;;;;;14.00;6.00;;;;;;;4.75;87.98;99713.80;105945;1291;58647;-77
2022/11/07 00:42:11;;;;;;;15.20;5.90;;;;;;;4.74;87.96;99713.48;105904;1283;72242;-78
2022/11/07 00:44:59;;;;;;;14.50;5.90;;;;;;;4.75;88.52;99711.16;105949;1291;66601;-78
2022/11/07 00:47:46;;;;;;;17.00;6.50;;;;;;;4.76;89.10;99704.05;105929;1284;72695;-78
2022/11/07 00:50:34;;;;;;;16.80;5.90;;;;;;;4.79;89.53;99697.91;105932;1291;57908;-77
2022/11/07 00:53:22;;;;;;;16.40;6.90;;;;;;;4.81;90.08;99698.48;105926;1284;58386;-78
2022/11/07 00:56:16;;;;;;;17.20;7.70;;;;;;;4.84;91.56;99682.67;105974;1284;70408;-79
2022/11/07 00:59:04;;;;;;;18.30;6.90;;;;;;;4.89;91.66;99677.30;105901;1292;67878;-79
2022/11/07 01:01:52;;;;;;;15.80;6.50;;;;;;;4.90;91.64;99678.79;105945;1291;72439;-79
2022/11/07 01:07:46;;;;;;;14.60;6.20;;;;;;;4.92;92.63;99674.65;105942;1291;59095;-82
2022/11/07 01:10:40;;;;;;;14.60;6.20;;;;;;;4.93;92.67;99665.95;105927;1290;70615;-80
2022/11/07 01:13:28;;;;;;;14.30;6.30;;;;;;;4.94;93.29;99661.86;105882;1292;67648;-79
2022/11/07 01:16:15;;;;;;;16.30;6.90;;;;;;;4.95;93.89;99658.60;105917;1291;72522;-79
2022/11/07 01:19:05;;;;;;;13.90;6.10;;;;;;;4.99;94.06;99653.83;105950;1284;57319;-79
2022/11/07 01:21:53;;;;;;;17.00;7.00;;;;;;;5.02;93.97;99648.19;105942;1291;60375;-78
2022/11/07 01:24:41;;;;;;;14.40;6.50;;;;;;;5.03;94.36;99645.11;105939;1284;72156;-78
2022/11/07 01:27:28;;;;;;;18.10;6.40;;;;;;;5.05;94.11;99639.73;105917;1290;68246;-80
2022/11/07 01:30:16;;;;;;;16.70;7.10;;;;;;;5.05;94.61;99635.38;105926;1291;72745;-80
2022/11/07 01:33:04;;;;;;;17.90;7.10;;;;;;;5.05;94.99;99634.48;105906;1284;59974;-80
2022/11/07 01:35:52;;;;;;;14.60;6.50;;;;;;;5.08;94.63;99632.55;105941;1291;59084;-81
2022/11/07 01:38:45;;;;;;;19.90;7.50;;;;;;;5.09;94.62;99628.92;105920;1290;72147;-79
2022/11/07 01:41:36;;;;;;;14.10;6.30;;;;;;;5.11;94.70;99624.98;105916;1291;69123;-78
2022/11/07 01:44:23;;;;;;;13.90;6.00;;;;;;;5.13;94.63;99628.17;105911;1291;72733;-80
2022/11/07 01:47:11;;;;;;;16.70;7.30;;;;;;;5.14;95.02;99625.84;105919;1291;58605;-78
2022/11/07 01:49:59;;;;;;;18.60;8.30;;;;;;;5.16;94.62;99621.13;105940;1284;58845;-81
2022/11/07 01:52:51;;;;;;;19.30;6.70;;;;;;;5.17;94.36;99615.61;105946;1291;71914;-78
2022/11/07 01:55:39;;;;;;;19.40;7.50;;;;;;;5.18;94.34;99613.42;105932;1283;66365;-79
2022/11/07 01:58:27;;;;;;;16.60;6.90;;;;;;;5.18;94.57;99612.04;105926;1292;72529;-79
2022/11/07 02:01:16;;;;;;;14.50;6.90;;;;;;;5.19;94.42;99606.52;105902;1291;60729;-78
2022/11/07 02:04:04;;;;;;;18.90;7.30;;;;;;;5.19;94.34;99602.50;105913;1292;60376;-79
2022/11/07 02:07:07;;;;;;;21.80;7.50;;;;;;;5.18;94.35;99601.29;105943;1298;70794;-79
2022/11/07 02:09:55;;;;;;;18.20;7.30;;;;;;;5.17;94.40;99603.14;105930;1291;67445;-77
2022/11/07 02:12:43;;;;;;;18.20;7.70;;;;;;;5.15;94.26;99599.70;105906;1285;72674;-78
2022/11/07 02:15:35;;;;;;;16.60;7.10;;;;;;;5.14;94.23;99598.92;105905;1293;58523;-79
2022/11/07 02:18:26;;;;;;;14.70;5.60;;;;;;;5.14;94.35;99596.98;105794;1291;60184;-79
2022/11/07 02:21:48;;;;;;;17.70;7.30;;;;;;;5.13;94.63;99596.88;105914;1297;71612;-78
2022/11/07 02:24:37;;;;;;;19.80;8.30;;;;;;;5.09;94.76;99592.31;105810;1292;67900;-79
2022/11/07 02:27:29;;;;;;;17.50;7.30;;;;;;;5.09;94.67;99590.79;105881;1283;73879;-78
2022/11/07 02:30:32;;;;;;;18.80;8.70;;;;;;;5.08;94.78;99591.91;105903;1290;57459;-78
2022/11/07 02:33:22;;;;;;;16.50;7.90;;;;;;;5.06;95.09;99590.10;105872;1293;60546;-79
2022/11/07 02:36:20;;;;;;;20.80;7.60;;;;;;;5.06;94.92;99585.55;105879;1292;72276;-78
2022/11/07 02:39:08;;;;;;;18.20;8.10;;;;;;;5.04;95.15;99581.96;105889;1292;68934;-78
2022/11/07 02:41:58;;;;;;;19.60;7.80;;;;;;;5.03;94.96;99582.21;105929;1292;71543;-79
2022/11/07 02:44:46;;;;;;;18.30;7.80;;;;;;;5.00;94.83;99573.73;105911;1291;58507;-80
2022/11/07 02:47:34;;;;;;;19.10;7.70;;;;;;;4.98;95.50;99575.80;105944;1291;58657;-77
2022/11/07 02:50:22;;;;;;;16.20;7.50;;;;;;;4.97;95.62;99573.23;105927;1295;71878;-77
2022/11/07 02:53:10;;;;;;;19.40;8.00;;;;;;;4.98;95.58;99573.56;105876;1292;67728;-78
2022/11/07 02:55:58;;;;;;;16.90;8.10;;;;;;;4.98;96.05;99573.34;105912;1292;72674;-80
2022/11/07 02:58:46;;;;;;;18.20;7.90;;;;;;;5.00;96.22;99573.60;105939;1290;58182;-79
2022/11/07 03:01:34;;;;;;;17.10;7.40;;;;;;;5.00;95.97;99573.58;105942;1291;58406;-77
2022/11/07 03:04:22;;;;;;;16.00;7.50;;;;;;;5.01;95.80;99573.02;105921;1292;71968;-79
2022/11/07 03:07:10;;;;;;;20.40;7.90;;;;;;;5.01;96.27;99574.54;105935;1290;66615;-80
2022/11/07 03:09:58;;;;;;;18.90;8.60;;;;;;;5.02;96.15;99573.80;105930;1290;73907;-78
2022/11/07 03:12:46;;;;;;;16.10;6.90;;;;;;;5.04;95.87;99572.83;105923;1292;58349;-79
2022/11/07 03:15:33;;;;;;;18.30;8.50;;;;;;;5.04;96.27;99574.05;105932;1290;58959;-78
2022/11/07 03:18:22;;;;;;;22.10;9.20;;;;;;;5.06;96.23;99578.16;105920;1291;72295;-79
2022/11/07 03:21:10;;;;;;;21.90;9.20;;;;;;;5.08;96.13;99577.28;105942;1291;69205;-78
2022/11/07 03:23:58;;;;;;;22.10;9.70;;;;;;;5.09;95.87;99578.27;105929;1284;73799;-78
2022/11/07 03:26:46;;;;;;;26.10;9.80;;;;;;;5.10;95.53;99572.09;105932;1292;58146;-79
2022/11/07 03:29:34;;;;;;;15.90;8.00;;;;;;;5.09;95.53;99572.63;105953;1290;61531;-77
2022/11/07 03:32:22;;;;;;;23.50;10.00;;;;;;;5.08;95.92;99564.80;105919;1284;70590;-77
2022/11/07 03:35:10;;;;;;;24.30;10.30;;;;;;;5.08;95.71;99563.55;105928;1290;66958;-79
2022/11/07 03:37:58;;;;;;;21.70;10.80;;;;;;;5.08;95.94;99562.20;105158;1283;1002403;-77
2022/11/07 03:40:46;;;;;;;24.60;10.80;;;;;;;5.08;96.24;99557.95;105930;1297;60966;-78
2022/11/07 03:43:33;;;;;;;21.40;8.70;;;;;;;5.09;95.86;99554.21;105924;1291;61338;-79
2022/11/07 03:46:21;;;;;;;20.80;9.50;;;;;;;5.09;95.92;99544.02;105954;1291;72287;-79
2022/11/07 03:49:09;;;;;;;24.10;10.70;;;;;;;5.10;96.22;99537.95;105948;1292;67112;-79
2022/11/07 03:51:57;;;;;;;24.90;10.20;;;;;;;5.10;96.09;99538.65;105921;1291;72521;-79
2022/11/07 03:54:45;;;;;;;22.20;11.20;;;;;;;5.11;96.13;99542.97;105906;1298;60767;-79
2022/11/07 03:57:33;;;;;;;24.50;11.00;;;;;;;5.11;96.07;99546.18;105895;1291;61586;-79
2022/11/07 04:00:21;;;;;;;22.10;10.60;;;;;;;5.09;95.88;99540.33;105940;1292;71058;-78
2022/11/07 04:03:09;;;;;;;21.20;10.20;;;;;;;5.05;95.82;99539.50;105935;1291;68912;-78
2022/11/07 04:05:57;;;;;;;23.50;10.60;;;;;;;5.01;95.79;99543.28;105914;1290;71582;-78
2022/11/07 04:08:45;;;;;;;23.10;10.70;;;;;;;4.97;96.31;99545.65;105918;1294;56819;-78
2022/11/07 04:17:46;;;;;;;24.10;12.10;;;;;;;4.90;97.12;99552.40;105948;1292;67989;-78
2022/11/07 04:20:34;;;;;;;25.50;11.60;;;;;;;4.91;96.88;99552.51;105919;1290;72893;-78
2022/11/07 04:23:22;;;;;;;22.70;12.10;;;;;;;4.90;96.62;99547.44;105907;1291;59284;-77
2022/11/07 04:29:17;;;;;;;30.00;12.50;;;;;;;4.88;97.08;99529.50;105925;1284;73341;-79
2022/11/07 04:32:04;;;;;;;23.80;11.10;;;;;;;4.87;97.32;99530.61;105929;1291;67891;-79
2022/11/07 04:34:52;;;;;;;22.80;12.40;;;;;;;4.85;97.61;99532.00;105882;1291;73468;-80
2022/11/07 04:37:41;;;;;;;21.30;9.30;;;;;;;4.84;97.81;99533.45;105908;1298;60744;-80
2022/11/07 04:40:29;;;;;;;19.60;10.60;;;;;;;4.82;97.70;99527.22;105928;1285;58690;-79
2022/11/07 04:43:17;;;;;;;26.00;12.20;;;;;;;4.81;97.71;99520.64;105959;1292;70944;-79
2022/11/07 04:46:05;;;;;;;25.50;12.80;;;;;;;4.78;97.99;99504.96;105884;1292;68015;-77
2022/11/07 04:48:53;;;;;;;30.10;14.70;;;;;;;4.77;98.00;99500.08;105914;1291;72490;-79
2022/11/07 04:51:42;;;;;;;26.50;12.10;;;;;;;4.77;98.01;99492.73;105932;1284;56834;-78
2022/11/07 04:54:29;;;;;;;26.40;12.70;;;;;;;4.75;97.73;99487.59;105923;1290;61179;-78
2022/11/07 04:57:18;;;;;;;27.60;13.30;;;;;;;4.72;97.70;99485.29;105933;1290;71241;-78
2022/11/07 05:00:07;;;;;;;26.40;12.00;;;;;;;4.69;97.77;99482.52;105933;1288;68865;-77
2022/11/07 05:02:55;;;;;;;26.60;12.90;;;;;;;4.66;97.99;99476.93;105901;1290;73326;-79
2022/11/07 05:05:43;;;;;;;28.70;13.80;;;;;;;4.63;98.05;99456.17;105920;1292;59808;-79
2022/11/07 05:08:31;;;;;;;25.20;13.20;;;;;;;4.61;98.17;99465.45;105896;1298;60591;-79
2022/11/07 05:11:18;;;;;;;29.20;13.20;;;;;;;4.58;98.05;99465.78;105916;1292;73379;-79
2022/11/07 05:14:07;;;;;;;23.90;11.50;;;;;;;4.55;98.34;99470.19;105898;1291;67759;-77
2022/11/07 05:16:54;;;;;;;27.20;12.60;;;;;;;4.53;98.43;99461.05;105897;1296;72914;-78
2022/11/07 05:19:42;;;;;;;27.70;13.50;;;;;;;4.48;98.49;99469.55;105984;1291;57376;-79
2022/11/07 05:25:52;;;;;;;25.40;12.00;;;;;;;4.45;98.93;99469.96;105985;1292;73513;-77
2022/11/07 05:28:39;;;;;;;25.10;12.20;;;;;;;4.43;98.75;99466.19;105784;1292;66581;-78
2022/11/07 05:31:27;;;;;;;23.10;11.10;;;;;;;4.42;98.47;99470.27;105871;1298;73876;-78
2022/11/07 05:34:15;;;;;;;29.50;13.30;;;;;;;4.42;98.59;99466.23;105770;1293;59044;-77
2022/11/07 05:37:06;;;;;;;23.90;11.00;;;;;;;4.39;98.99;99468.02;105844;1293;60533;-79
2022/11/07 05:39:56;;;;;;;24.80;12.30;;;;;;;4.39;98.97;99467.70;105805;1294;70854;-78
2022/11/07 05:42:43;;;;;;;26.10;12.10;;;;;;;4.37;98.85;99466.92;105859;1290;66525;-77
2022/11/07 05:45:37;;;;;;;23.40;11.30;;;;;;;4.36;98.72;99463.62;105715;1298;206286;-77
2022/11/07 05:48:26;;;;;;;28.10;13.70;;;;;;;4.36;98.46;99451.55;105855;1291;59616;-79
2022/11/07 05:51:18;;;;;;;25.10;12.50;;;;;;;4.36;98.89;99455.95;105862;1290;58690;-77
2022/11/07 05:54:05;;;;;;;25.60;12.50;;;;;;;4.34;98.99;99445.85;105776;1293;72490;-78
2022/11/07 05:56:57;;;;;;;24.20;10.80;;;;;;;4.31;99.18;99444.44;105675;1296;67754;-78
2022/11/07 05:59:47;;;;;;;25.00;12.90;;;;;;;4.29;99.64;99431.05;105765;1291;71294;-78
2022/11/07 06:02:35;;;;;;;25.70;11.80;;;;;;;4.27;99.66;99437.70;105787;1291;58549;-79
2022/11/07 06:05:23;;;;;;;25.00;11.10;;;;;;;4.24;99.77;99448.03;105711;1290;61752;-78
2022/11/07 06:08:12;;;;;;;28.80;14.60;;;;;;;4.21;99.91;99441.75;105651;1300;73136;-78
2022/11/07 06:11:06;;;;;;;28.60;13.80;;;;;;;4.20;99.91;99446.73;105754;1293;68613;-78
2022/11/07 06:13:54;;;;;;;26.70;12.60;;;;;;;4.20;100.00;99450.40;105757;1293;72812;-79
2022/11/07 06:16:41;;;;;;;31.30;14.20;;;;;;;4.20;100.00;99450.38;105753;1293;60798;-79
2022/11/07 06:19:29;;;;;;;30.90;13.70;;;;;;;4.21;100.00;99449.77;105753;1295;58532;-78
2022/11/07 06:22:17;;;;;;;24.40;11.50;;;;;;;4.22;100.00;99457.13;105733;1296;70917;-78
2022/11/07 06:25:05;;;;;;;29.30;12.70;;;;;;;4.22;100.00;99455.89;105793;1294;68005;-79
2022/11/07 06:27:57;;;;;;;26.80;13.30;;;;;;;4.22;100.00;99458.02;105763;1293;71396;-80
2022/11/07 06:30:45;;;;;;;30.80;14.30;;;;;;;4.22;100.00;99461.67;105780;1299;59996;-79
2022/11/07 06:33:33;;;;;;;28.20;12.60;;;;;;;4.26;100.00;99460.05;105904;1282;58894;-80
2022/11/07 06:36:20;;;;;;;30.80;14.10;;;;;;;4.28;100.00;99461.66;105872;1292;73410;-79
2022/11/07 06:39:08;;;;;;;26.40;13.20;;;;;;;4.30;100.00;99458.92;105921;1290;69080;-78
2022/11/07 06:41:56;;;;;;;29.50;13.80;;;;;;;4.32;100.00;99453.16;105883;1292;71466;-79
2022/11/07 06:44:44;;;;;;;28.70;12.60;;;;;;;4.34;100.00;99456.91;105893;1290;60779;-80
2022/11/07 06:47:31;;;;;;;27.90;14.70;;;;;;;4.37;100.00;99455.86;105909;1292;60385;-78
2022/11/07 06:50:19;;;;;;;29.10;13.40;;;;;;;4.45;100.00;99459.44;105880;1293;70591;-80
2022/11/07 06:53:11;;;;;;;32.60;14.40;;;;;;;4.48;100.00;99460.98;105893;1291;67865;-79
2022/11/07 06:56:01;;;;;;;27.80;14.00;;;;;;;4.51;100.00;99461.81;105882;1298;73978;-78
2022/11/07 06:58:48;;;;;;;27.50;12.40;;;;;;;4.53;100.00;99461.17;105136;1285;1002901;-78
2022/11/07 07:01:36;;;;;;;31.40;15.80;;;;;;;4.52;100.00;99459.02;105863;1292;61386;-78
2022/11/07 07:04:24;;;;;;;27.30;12.60;;;;;;;4.53;100.00;99462.59;105855;1298;73381;-79
2022/11/07 07:07:13;;;;;;;27.10;13.10;;;;;;;4.56;99.94;99459.23;105891;1291;67875;-78
2022/11/07 07:10:00;;;;;;;29.60;14.70;;;;;;;4.58;99.79;99463.38;105866;1291;74431;-78
2022/11/07 07:12:48;;;;;;;29.30;14.40;;;;;;;4.59;99.36;99461.16;105892;1292;59369;-77
2022/11/07 07:15:36;;;;;;;28.10;13.00;;;;;;;4.65;99.23;99463.31;105884;1292;61175;-80
2022/11/07 07:18:37;;;;;;;34.00;16.10;;;;;;;4.71;98.69;99458.49;105850;1291;73591;-79
2022/11/07 07:21:25;;;;;;;30.80;15.10;;;;;;;4.74;98.23;99457.77;105890;1291;68888;-78
2022/11/07 07:24:13;;;;;;;31.10;14.90;;;;;;;4.76;98.06;99453.42;105873;1291;72602;-78
2022/11/07 07:27:01;;;;;;;33.20;14.70;;;;;;;4.77;97.75;99454.44;105902;1294;57934;-78
2022/11/07 07:29:49;;;;;;;28.30;14.70;;;;;;;4.76;97.83;99457.98;105874;1292;60540;-79
2022/11/07 07:32:37;;;;;;;30.30;15.10;;;;;;;4.76;97.66;99452.33;105887;1293;72301;-77
2022/11/07 07:35:25;;;;;;;29.90;15.00;;;;;;;4.79;97.43;99454.61;105156;1292;1002898;-79
2022/11/07 07:38:13;;;;;;;31.20;14.10;;;;;;;4.79;96.96;99448.68;105881;1297;73926;-78
2022/11/07 07:41:01;;;;;;;26.30;12.80;;;;;;;4.76;96.83;99445.34;105879;1284;60697;-77
2022/11/07 07:43:49;;;;;;;34.50;16.10;;;;;;;4.75;96.99;99440.66;105871;1291;61565;-77
2022/11/07 07:46:37;;;;;;;29.50;13.70;;;;;;;4.78;96.65;99430.44;105907;1293;71055;-78
2022/11/07 07:49:24;;;;;;;30.00;14.10;;;;;;;4.80;96.70;99428.39;105862;1296;67551;-79
2022/11/07 07:52:12;;;;;;;31.20;14.30;;;;;;;4.82;96.83;99428.95;105894;1290;72690;-79
2022/11/07 07:55:00;;;;;;;31.20;15.10;;;;;;;4.87;96.55;99427.08;105903;1290;57915;-77
2022/11/07 07:57:48;;;;;;;27.70;13.00;;;;;;;4.90;96.33;99424.78;105885;1290;60190;-79
2022/11/07 08:00:36;;;;;;;31.10;14.90;;;;;;;4.90;95.75;99420.19;105889;1292;70163;-79
2022/11/07 08:03:26;;;;;;;30.10;13.70;;;;;;;4.91;95.94;99422.91;105907;1290;66595;-78
2022/11/07 08:06:21;;;;;;;34.20;15.50;;;;;;;4.93;95.62;99416.46;105835;1290;73908;-77
2022/11/07 08:09:09;;;;;;;28.00;12.90;;;;;;;4.94;95.17;99402.40;105870;1292;58029;-78
2022/11/07 08:11:57;;;;;;;28.40;14.00;;;;;;;4.93;95.27;99408.91;105907;1284;59159;-77
2022/11/07 08:14:45;;;;;;;31.20;15.10;;;;;;;4.95;95.44;99401.61;105913;1290;70769;-77
2022/11/07 08:17:33;;;;;;;34.40;15.80;;;;;;;4.95;95.19;99400.19;105901;1291;66582;-78
2022/11/07 08:20:24;;;;;;;35.10;15.00;;;;;;;4.95;95.05;99400.16;105915;1291;71119;-79
2022/11/07 08:23:12;;;;;;;31.60;14.80;;;;;;;4.95;95.13;99399.50;105890;1292;59345;-79
2022/11/07 08:26:04;;;;;;;29.00;13.90;;;;;;;4.96;95.12;99405.77;105873;1291;60320;-78
2022/11/07 08:28:53;;;;;;;33.10;16.00;;;;;;;4.97;95.16;99414.15;105911;1297;72326;-79
2022/11/07 08:31:40;;;;;;;28.50;14.30;;;;;;;5.00;95.47;99420.95;105911;1290;66175;-78
2022/11/07 08:34:28;;;;;;;35.00;15.00;;;;;;;5.06;95.09;99416.19;105838;1295;71177;-79
2022/11/07 08:37:16;;;;;;;40.50;16.90;;;;;;;5.15;94.76;99419.15;105915;1291;57982;-80
2022/11/07 08:40:05;;;;;;;34.80;17.20;;;;;;;5.21;94.34;99423.31;105870;1296;60320;-79
2022/11/07 08:42:59;;;;;;;31.20;14.80;;;;;;;5.28;94.11;99418.05;105931;1277;73280;-79
2022/11/07 08:45:48;;;;;;;33.00;16.40;;;;;;;5.36;93.49;99424.23;105831;1295;69094;-79
2022/11/07 08:48:36;;;;;;;36.00;15.80;;;;;;;5.46;93.14;99419.39;105888;1297;73931;-81
2022/11/07 08:51:23;;;;;;;31.90;15.50;;;;;;;5.55;92.13;99416.84;105880;1291;59318;-79
2022/11/07 08:54:12;;;;;;;37.10;17.20;;;;;;;5.67;91.65;99408.87;105895;1291;58887;-79
2022/11/07 08:57:00;;;;;;;31.70;15.90;;;;;;;5.75;90.94;99406.86;105854;1292;71253;-79
2022/11/07 08:59:47;;;;;;;31.20;15.10;;;;;;;5.83;90.14;99407.56;105866;1292;67993;-79
2022/11/07 09:02:35;;;;;;;30.70;15.00;;;;;;;5.97;89.87;99411.36;105860;1292;73500;-78
2022/11/07 09:05:43;;;;;;;33.90;15.50;;;;;;;6.06;89.29;99415.37;105880;1291;58172;-78
2022/11/07 09:08:32;;;;;;;33.10;14.40;;;;;;;6.20;88.81;99431.11;105884;1291;59409;-79
2022/11/07 09:11:21;;;;;;;29.60;15.60;;;;;;;6.43;88.00;99427.26;105891;1291;71178;-79
2022/11/07 09:14:08;;;;;;;28.70;13.70;;;;;;;6.52;86.75;99425.52;105928;1292;69430;-78
2022/11/07 09:16:57;;;;;;;33.70;16.40;;;;;;;6.54;86.86;99420.47;105960;1285;72596;-78
2022/11/07 09:19:45;;;;;;;29.70;13.90;;;;;;;6.56;86.58;99418.61;105950;1291;59499;-79
2022/11/07 09:22:33;;;;;;;31.10;15.00;;;;;;;6.54;86.35;99422.92;105899;1284;60585;-78
2022/11/07 09:25:20;;;;;;;31.40;13.70;;;;;;;6.60;86.31;99416.53;105878;1283;73425;-78
2022/11/07 09:28:09;;;;;;;37.20;12.20;;;;;;;6.69;86.34;99416.59;105908;1292;69070;-78
2022/11/07 09:30:58;;;;;;;30.50;14.60;;;;;;;6.79;85.97;99417.63;105886;1292;73855;-79
2022/11/07 09:33:46;;;;;;;28.80;15.80;;;;;;;6.89;85.52;99414.27;105874;1290;59304;-77
2022/11/07 09:36:34;;;;;;;31.50;15.80;;;;;;;7.05;84.94;99403.36;105877;1297;59093;-79
2022/11/07 09:39:22;;;;;;;30.70;14.80;;;;;;;7.27;83.67;99399.82;105847;1297;72481;-79
2022/11/07 09:42:57;;;;;;;25.40;12.90;;;;;;;7.54;82.91;99404.39;105906;1291;67666;-79
2022/11/07 09:46:02;;;;;;;28.30;13.90;;;;;;;7.95;80.68;99395.39;105915;1285;73854;-79
2022/11/07 09:49:00;;;;;;;25.90;14.00;;;;;;;8.37;78.94;99401.86;105900;1285;57497;-79
2022/11/07 09:52:41;;;;;;;25.80;13.00;;;;;;;8.71;77.59;99399.03;105865;1292;59390;-80
2022/11/07 09:55:37;;;;;;;26.70;14.10;;;;;;;9.01;75.42;99397.17;105895;1290;72300;-78
2022/11/07 09:58:53;;;;;;;32.70;15.80;;;;;;;9.27;74.15;99398.23;105744;1294;67048;-78
2022/11/07 10:01:41;;;;;;;33.40;16.00;;;;;;;9.23;73.25;99394.45;105869;1295;71736;-78
2022/11/07 10:04:29;;;;;;;26.40;14.70;;;;;;;9.15;73.57;99398.27;105885;1291;57905;-78
2022/11/07 10:07:48;;;;;;;28.80;15.10;;;;;;;10.97;68.00;99386.27;105894;1291;60454;-78
2022/11/07 10:11:29;;;;;;;27.90;14.80;;;;;;;13.23;60.82;99376.69;105899;1291;72305;-78
2022/11/07 10:14:45;;;;;;;29.90;15.10;;;;;;;15.22;54.42;99367.11;105298;1298;67213;-79
2022/11/07 10:17:45;;;;;;;28.40;14.90;;;;;;;16.92;48.68;99365.00;105269;1299;72842;-78
2022/11/07 10:20:52;;;;;;;23.00;13.60;;;;;;;17.69;45.45;99372.40;105253;1305;59668;-79
2022/11/07 10:24:21;;;;;;;23.30;14.00;;;;;;;18.50;44.07;99378.60;105403;1297;60501;-77
2022/11/07 10:27:10;;;;;;;21.30;13.90;;;;;;;19.04;41.94;99383.88;105421;1291;71071;-78
2022/11/07 10:30:00;;;;;;;20.80;12.60;;;;;;;18.68;41.34;99381.64;105359;1300;68925;-76
2022/11/07 10:33:20;;;;;;;19.00;12.50;;;;;;;18.98;42.05;99377.78;105307;1299;72428;-78
2022/11/07 10:36:28;;;;;;;19.80;12.00;;;;;;;19.16;41.31;99368.00;105284;1300;58186;-78
2022/11/07 10:39:18;;;;;;;20.60;12.50;;;;;;;19.01;39.82;99366.39;105303;1293;61221;-77
2022/11/07 10:42:13;;;;;;;19.80;12.00;;;;;;;19.05;40.74;99370.23;105271;1292;71559;-78
2022/11/07 10:45:00;;;;;;;18.50;12.10;;;;;;;19.30;39.63;99369.31;105290;1298;68006;-78
2022/11/07 10:48:03;;;;;;;19.20;11.90;;;;;;;18.90;40.06;99369.94;105267;1298;72872;-78
2022/11/07 10:50:53;;;;;;;16.70;11.60;;;;;;;18.29;41.77;99375.52;105816;1291;57980;-78
2022/11/07 10:53:44;;;;;;;20.30;12.50;;;;;;;17.04;44.05;99373.88;105889;1291;61638;-77
2022/11/07 10:56:48;;;;;;;24.60;14.30;;;;;;;15.81;47.03;99377.90;105908;1290;71466;-80
2022/11/07 10:59:40;;;;;;;26.90;15.90;;;;;;;15.19;49.55;99374.06;105889;1291;67900;-79
2022/11/07 11:02:47;;;;;;;24.60;14.60;;;;;;;15.58;49.26;99367.34;105869;1290;70040;-78
2022/11/07 11:05:38;;;;;;;25.00;13.20;;;;;;;14.98;50.22;99372.16;105894;1298;56782;-80
2022/11/07 11:08:31;;;;;;;24.50;13.90;;;;;;;14.11;52.72;99378.58;105916;1283;58930;-78
2022/11/07 11:11:34;;;;;;;22.30;13.20;;;;;;;13.94;54.34;99384.94;105895;1284;73229;-78
2022/11/07 11:14:23;;;;;;;21.70;12.50;;;;;;;14.00;54.39;99389.71;105932;1291;69648;-78
2022/11/07 11:17:25;;;;;;;19.80;11.50;;;;;;;13.49;55.22;99389.98;105889;1285;73790;-79
2022/11/07 11:20:35;;;;;;;19.40;12.10;;;;;;;12.77;57.61;99390.66;105908;1290;58002;-78
2022/11/07 11:23:28;;;;;;;20.60;11.60;;;;;;;12.14;59.73;99391.52;105891;1291;60304;-79
2022/11/07 11:26:23;;;;;;;23.10;12.10;;;;;;;11.76;61.22;99393.10;105885;1290;73509;-78
2022/11/07 11:29:25;;;;;;;20.10;10.40;;;;;;;11.45;62.83;99387.27;105927;1285;66683;-80
2022/11/07 11:32:25;;;;;;;20.90;10.80;;;;;;;11.02;64.51;99380.84;105893;1285;71461;-79
2022/11/07 11:35:35;;;;;;;18.70;10.60;;;;;;;10.63;66.85;99381.85;105854;1292;56889;-79
2022/11/07 11:38:37;;;;;;;23.30;12.40;;;;;;;10.32;68.14;99389.89;105892;1291;60217;-78
2022/11/07 11:41:37;;;;;;;23.10;10.70;;;;;;;10.17;68.91;99385.79;105863;1291;73249;-78
2022/11/07 11:44:40;;;;;;;21.30;11.10;;;;;;;10.18;69.16;99387.00;105908;1291;66357;-78
2022/11/07 11:47:43;;;;;;;24.90;11.30;;;;;;;10.24;69.64;99381.87;105837;1290;72956;-81
2022/11/07 11:51:11;;;;;;;23.40;11.10;;;;;;;10.20;69.95;99383.04;105890;1291;57210;-79
2022/11/07 11:54:00;;;;;;;22.20;11.10;;;;;;;10.17;70.13;99382.82;105907;1291;61553;-81
2022/11/07 11:57:02;;;;;;;18.20;10.00;;;;;;;10.23;70.33;99382.60;105899;1291;71022;-79
2022/11/07 12:00:21;;;;;;;29.20;11.10;;;;;;;11.02;68.62;99376.89;105943;1284;69032;-78
2022/11/07 12:03:38;;;;;;;23.20;11.60;;;;;;;11.79;64.96;99372.94;105903;1290;71071;-78
2022/11/07 12:06:37;;;;;;;18.40;10.60;;;;;;;12.37;63.10;99372.16;105904;1291;57705;-80
2022/11/07 12:09:46;;;;;;;19.20;9.30;;;;;;;12.89;61.14;99369.95;105871;1284;59574;-78
2022/11/07 12:12:58;;;;;;;20.30;9.80;;;;;;;13.17;59.13;99368.48;105899;1284;72009;-79
2022/11/07 12:16:10;;;;;;;18.20;9.50;;;;;;;13.31;58.54;99372.63;105880;1291;69067;-79
2022/11/07 12:19:33;;;;;;;16.20;8.70;;;;;;;13.24;57.94;99368.81;105910;1285;72698;-78
2022/11/07 12:22:38;;;;;;;18.80;9.50;;;;;;;12.73;59.62;99376.46;105929;1285;58797;-79
2022/11/07 12:26:01;;;;;;;17.50;9.50;;;;;;;12.46;60.66;99369.66;105911;1285;58696;-78
2022/11/07 12:29:13;;;;;;;19.10;9.00;;;;;;;11.91;62.37;99372.51;105880;1285;70842;-79
2022/11/07 12:32:31;;;;;;;18.40;8.40;;;;;;;11.54;63.93;99385.92;105918;1290;68844;-80
2022/11/07 12:35:34;;;;;;;17.80;8.40;;;;;;;11.31;65.26;99382.89;105903;1282;72391;-77
2022/11/07 12:38:51;;;;;;;20.90;9.40;;;;;;;11.13;66.19;99382.04;105863;1290;59151;-78
2022/11/07 12:41:56;;;;;;;19.80;8.80;;;;;;;10.82;67.17;99387.14;105925;1291;59334;-79
2022/11/07 12:44:59;;;;;;;17.70;8.00;;;;;;;10.53;68.24;99392.79;105877;1291;73513;-78
2022/11/07 12:48:08;;;;;;;17.70;8.00;;;;;;;10.30;69.91;99396.06;105903;1286;69169;-79
2022/11/07 12:51:43;;;;;;;16.00;7.60;;;;;;;10.05;71.14;99394.98;105898;1291;72696;-79
2022/11/07 12:54:46;;;;;;;17.90;8.80;;;;;;;9.83;72.51;99395.97;105898;1292;58796;-78
2022/11/07 12:57:38;;;;;;;16.20;8.80;;;;;;;9.72;73.26;99393.54;105915;1293;60362;-77
2022/11/07 13:00:28;;;;;;;16.30;8.30;;;;;;;9.67;73.51;99397.91;105854;1291;73263;-77
2022/11/07 13:03:41;;;;;;;20.20;9.20;;;;;;;9.63;73.83;99392.88;105924;1291;67914;-78
2022/11/07 13:07:12;;;;;;;19.10;8.80;;;;;;;9.62;73.93;99395.64;105885;1292;71061;-79
2022/11/07 13:10:48;;;;;;;19.10;9.10;;;;;;;9.53;74.74;99391.30;105878;1292;59162;-79
2022/11/07 13:14:27;;;;;;;20.90;8.50;;;;;;;9.40;75.60;99397.00;105910;1291;59210;-79
2022/11/07 13:17:20;;;;;;;20.50;8.10;;;;;;;9.26;76.37;99397.40;105891;1291;73484;-80
2022/11/07 13:20:20;;;;;;;19.90;9.10;;;;;;;9.20;77.35;99402.11;105867;1291;68088;-78
2022/11/07 13:23:15;;;;;;;17.20;8.70;;;;;;;9.15;77.86;99402.57;105877;1291;73921;-77
2022/11/07 13:26:06;;;;;;;18.30;8.20;;;;;;;9.13;77.80;99399.70;105896;1283;56915;-79
2022/11/07 13:29:38;;;;;;;15.00;7.20;;;;;;;9.12;78.15;99400.16;105885;1291;59009;-78
2022/11/07 13:32:37;;;;;;;20.50;9.00;;;;;;;9.07;78.71;99401.64;105876;1292;73054;-78
2022/11/07 13:35:28;;;;;;;20.30;8.10;;;;;;;9.03;78.86;99403.86;105785;1292;69312;-79